Time;durP1;ratioP1;P1;durP2;ratioP2;P2;SDS_P1;SDS_P2;PMS_P1;PMS_P2;Temp;Humidity;BMP_temperature;BMP_pressure;BME280_temperature;BME280_humidity;BME280_pressure;Samples;Min_cycle;Max_cycle;Signal;HPM_P1;HPM_P2
2023/05/19 00:03:51;;;;;;;6.37;2.37;;;;;;;9.95;78.40;100440.50;12185620;19;20015;-81
2023/05/19 00:07:57;;;;;;;4.15;2.03;;;;;;;9.94;78.40;100440.75;12227982;19;20325;-79
2023/05/19 00:11:59;;;;;;;4.57;2.05;;;;;;;9.87;79.04;100434.47;12221904;19;20385;-82
2023/05/19 00:16:01;;;;;;;7.13;1.95;;;;;;;9.85;78.19;100436.63;12194079;19;20023;-83
2023/05/19 00:20:06;;;;;;;4.82;1.50;;;;;;;9.81;78.36;100436.22;12218794;19;20006;-82
2023/05/19 00:24:07;;;;;;;6.28;2.08;;;;;;;9.80;78.15;100429.03;12212931;19;20380;-82
2023/05/19 00:28:09;;;;;;;6.43;2.10;;;;;;;9.78;79.89;100432.00;12190438;19;20027;-80
2023/05/19 00:32:11;;;;;;;7.72;2.33;;;;;;;9.72;81.90;100437.59;12212527;19;20022;-82
2023/05/19 00:36:13;;;;;;;11.67;4.10;;;;;;;9.64;81.75;100425.00;12218108;19;20506;-82
2023/05/19 00:40:15;;;;;;;3.63;1.77;;;;;;;9.58;83.15;100436.91;12197537;19;20007;-81
2023/05/19 00:44:17;;;;;;;4.72;2.03;;;;;;;9.51;83.71;100425.97;12221531;19;20018;-81
2023/05/19 00:48:19;;;;;;;6.65;2.25;;;;;;;9.41;84.77;100428.41;12224498;19;20409;-82
2023/05/19 00:52:21;;;;;;;3.17;2.00;;;;;;;9.38;83.78;100430.78;12195471;19;20010;-79
2023/05/19 00:56:23;;;;;;;7.82;2.10;;;;;;;9.35;85.05;100426.56;12220498;19;20015;-81
2023/05/19 01:00:25;;;;;;;3.95;2.05;;;;;;;9.30;85.09;100426.41;12221368;19;20014;-81
2023/05/19 01:04:28;;;;;;;7.50;1.75;;;;;;;9.28;84.22;100418.38;12196015;19;20102;-82
2023/05/19 01:08:33;;;;;;;;;;;;;;;9.25;85.56;100420.72;12215149;19;20074;-81
2023/05/19 01:12:35;;;;;;;5.90;1.85;;;;;;;9.21;84.99;100414.00;12207771;19;19986;-81
2023/05/19 01:16:45;;;;;;;7.53;2.17;;;;;;;9.17;86.73;100401.78;12193601;19;20019;-83
2023/05/19 01:20:58;;;;;;;7.95;2.08;;;;;;;9.10;87.93;100402.69;12219530;19;20503;-81
2023/05/19 01:25:09;;;;;;;3.73;1.83;;;;;;;9.04;90.23;100400.84;12194264;19;20019;-82
2023/05/19 01:29:16;;;;;;;5.00;1.92;;;;;;;9.01;90.79;100411.44;12210311;19;20014;-81
2023/05/19 01:33:20;;;;;;;12.63;2.92;;;;;;;8.95;90.74;100404.91;12215723;19;20577;-83
2023/05/19 01:37:23;;;;;;;8.32;2.28;;;;;;;8.90;89.24;100407.53;12195539;19;20086;-80
2023/05/19 01:41:25;;;;;;;9.00;2.80;;;;;;;8.87;90.30;100407.97;12217462;19;20019;-81
2023/05/19 01:45:28;;;;;;;5.90;2.30;;;;;;;8.83;90.81;100410.34;12214010;19;20031;-80
2023/05/19 01:49:30;;;;;;;8.18;2.63;;;;;;;8.80;90.64;100409.91;12195087;19;20014;-80
2023/05/19 01:53:32;;;;;;;5.82;3.58;;;;;;;8.76;91.14;100415.03;12214301;19;20006;-82
2023/05/19 01:57:58;;;;;;;4.05;2.20;;;;;;;8.72;91.50;100412.97;12215103;19;20013;-81
2023/05/19 02:02:07;;;;;;;6.40;2.08;;;;;;;8.69;92.62;100416.16;12192722;19;20033;-81
2023/05/19 02:06:18;;;;;;;7.00;2.40;;;;;;;8.66;92.89;100421.03;12214347;19;20483;-82
2023/05/19 02:10:29;;;;;;;3.60;2.10;;;;;;;8.63;91.88;100418.72;12190989;19;20011;-81
2023/05/19 02:14:38;;;;;;;6.43;2.20;;;;;;;8.62;95.12;100422.50;12214895;19;20487;-81
2023/05/19 02:18:44;;;;;;;7.15;2.40;;;;;;;8.57;95.88;100425.09;12192725;19;20464;-81
2023/05/19 02:22:46;;;;;;;6.90;2.08;;;;;;;8.50;96.07;100418.78;12213167;19;20007;-82
2023/05/19 02:26:49;;;;;;;3.97;2.03;;;;;;;8.50;96.48;100416.06;12214699;19;20107;-80
2023/05/19 02:30:52;;;;;;;3.00;1.88;;;;;;;8.46;96.37;100414.81;12190211;19;20023;-81
2023/05/19 02:34:55;;;;;;;4.72;2.25;;;;;;;8.43;98.08;100420.75;12208839;19;20085;-82
2023/05/19 02:38:57;;;;;;;7.28;2.35;;;;;;;8.38;98.68;100407.66;12209655;19;20018;-82
2023/05/19 02:42:58;;;;;;;7.78;2.42;;;;;;;8.32;98.82;100414.03;12189753;19;20035;-81
2023/05/19 02:47:00;;;;;;;5.03;2.20;;;;;;;8.28;97.17;100409.22;12214324;19;20014;-80
2023/05/19 02:51:02;;;;;;;3.65;1.98;;;;;;;8.26;97.70;100409.41;12212217;19;20033;-81
2023/05/19 02:55:04;;;;;;;5.78;2.53;;;;;;;8.21;99.31;100395.53;12190993;19;20026;-82
2023/05/19 02:59:06;;;;;;;7.43;2.33;;;;;;;8.17;99.15;100402.50;12207053;19;20007;-81
2023/05/19 03:03:09;;;;;;;4.77;1.97;;;;;;;8.15;98.74;100402.72;12205544;19;20015;-81
2023/05/19 03:07:13;;;;;;;5.73;2.00;;;;;;;8.11;99.26;100397.88;12191011;19;20256;-80
2023/05/19 03:11:15;;;;;;;6.72;2.17;;;;;;;8.10;100.00;100398.97;12211507;19;20078;-82
2023/05/19 03:15:18;;;;;;;8.83;2.70;;;;;;;8.08;99.09;100395.56;12208350;19;20014;-82
2023/05/19 03:19:20;;;;;;;5.43;2.53;;;;;;;8.06;100.00;100398.56;12192751;19;20515;-81
2023/05/19 03:23:22;;;;;;;3.15;1.70;;;;;;;8.02;99.40;100402.78;12211249;19;20007;-81
2023/05/19 03:27:24;;;;;;;2.95;1.80;;;;;;;8.00;100.00;100404.88;12210847;19;20006;-83
2023/05/19 03:31:25;;;;;;;8.15;2.00;;;;;;;7.97;100.00;100394.34;12190558;19;20416;-82
2023/05/19 03:35:27;;;;;;;8.73;2.03;;;;;;;7.98;100.00;100401.53;12205965;19;20037;-82
2023/05/19 03:39:29;;;;;;;5.18;2.15;;;;;;;7.98;99.54;100410.63;12208177;19;20003;-82
2023/05/19 03:43:31;;;;;;;7.10;2.60;;;;;;;8.00;100.00;100410.38;12186854;19;20498;-83
2023/05/19 03:47:36;;;;;;;5.05;2.20;;;;;;;8.01;100.00;100414.84;12208154;19;20816;-81
2023/05/19 03:51:57;;;;;;;3.83;1.90;;;;;;;7.98;100.00;100420.75;12190641;19;23062;-81
2023/05/19 03:56:22;;;;;;;6.50;2.33;;;;;;;8.00;100.00;100410.38;12209190;19;20369;-82
2023/05/19 04:00:24;;;;;;;6.25;2.55;;;;;;;8.04;100.00;100417.13;12209446;19;20062;-82
2023/05/19 04:04:27;;;;;;;6.82;2.13;;;;;;;8.09;100.00;100422.81;12187998;19;20014;-81
2023/05/19 04:08:28;;;;;;;4.72;2.50;;;;;;;8.13;100.00;100420.47;12212243;19;20013;-81
2023/05/19 04:12:31;;;;;;;6.40;2.35;;;;;;;8.15;100.00;100416.47;12218713;19;20051;-83
2023/05/19 04:16:34;;;;;;;6.22;2.28;;;;;;;8.17;100.00;100414.31;12194476;19;20060;-84
2023/05/19 04:20:36;;;;;;;5.97;2.42;;;;;;;8.20;100.00;100416.63;12222003;19;20012;-82
2023/05/19 04:24:38;;;;;;;9.07;2.22;;;;;;;8.25;99.79;100420.63;12201114;19;20492;-84
2023/05/19 04:28:41;;;;;;;6.82;2.58;;;;;;;8.35;99.21;100420.97;12223082;19;20007;-84
2023/05/19 04:32:42;;;;;;;5.55;2.35;;;;;;;8.44;98.59;100427.91;12212622;19;20676;-82
2023/05/19 04:36:44;;;;;;;7.82;1.88;;;;;;;8.47;98.20;100419.25;12197698;19;20018;-84
2023/05/19 04:40:48;;;;;;;4.93;2.53;;;;;;;8.53;96.79;100428.50;12222276;19;20511;-82
2023/05/19 04:44:51;;;;;;;11.50;2.30;;;;;;;8.59;96.59;100425.69;12220864;19;20873;-81
2023/05/19 04:48:55;;;;;;;6.50;2.05;;;;;;;8.64;95.65;100427.81;12196569;19;20026;-80
2023/05/19 04:52:58;;;;;;;;;;;;;;;8.64;96.06;100428.63;12221707;19;20010;-83
2023/05/19 04:57:00;;;;;;;8.80;2.35;;;;;;;8.71;95.17;100436.00;12219875;19;19915;-80
2023/05/19 05:01:04;;;;;;;7.05;2.35;;;;;;;8.76;95.03;100438.91;12197106;19;20011;-81
2023/05/19 05:05:07;;;;;;;5.57;2.30;;;;;;;8.79;94.92;100443.97;12218652;19;20017;-81
2023/05/19 05:09:09;;;;;;;8.52;2.05;;;;;;;8.81;95.19;100439.94;12219072;19;20014;-82
2023/05/19 05:13:11;;;;;;;5.40;1.80;;;;;;;8.83;95.68;100439.69;12197066;19;20014;-81
2023/05/19 05:17:13;;;;;;;6.37;2.13;;;;;;;8.92;95.92;100449.34;12217143;19;20011;-81
2023/05/19 05:21:16;;;;;;;;;;;;;;;8.98;96.44;100444.88;12218328;19;20011;-83
2023/05/19 05:25:19;;;;;;;7.15;1.75;;;;;;;9.08;94.49;100442.47;12195469;19;19935;-83
2023/05/19 05:29:22;;;;;;;5.25;1.80;;;;;;;9.18;94.40;100431.78;12217628;19;20015;-83
2023/05/19 05:33:24;;;;;;;6.38;1.90;;;;;;;9.27;93.58;100430.44;12215286;19;20574;-83
2023/05/19 05:37:26;;;;;;;3.83;2.00;;;;;;;9.37;92.70;100427.19;12191372;19;20007;-82
2023/05/19 05:41:33;;;;;;;5.65;1.90;;;;;;;9.48;92.14;100426.41;12215592;19;20003;-84
2023/05/19 05:45:55;;;;;;;9.50;2.23;;;;;;;9.56;91.91;100426.13;12202746;19;20006;-82
2023/05/19 05:49:57;;;;;;;5.50;2.00;;;;;;;9.64;91.69;100427.75;12227451;19;20006;-83
2023/05/19 05:54:01;;;;;;;4.13;2.27;;;;;;;9.72;90.64;100432.94;12222706;19;20529;-83
2023/05/19 05:58:10;;;;;;;3.60;2.42;;;;;;;9.79;90.15;100430.13;12172534;19;20018;-83
2023/05/19 06:02:12;;;;;;;6.22;1.98;;;;;;;9.85;89.91;100426.44;12228821;19;20018;-82
2023/05/19 06:06:14;;;;;;;8.05;2.22;;;;;;;9.98;89.47;100433.69;12231836;19;20591;-83
2023/05/19 06:10:16;;;;;;;6.13;2.22;;;;;;;10.14;89.66;100432.22;12205081;19;20404;-83
2023/05/19 06:14:19;;;;;;;6.10;2.60;;;;;;;10.31;88.78;100429.69;12223640;19;20009;-83
2023/05/19 06:18:40;;;;;;;6.28;2.30;;;;;;;10.54;88.52;100428.97;12210716;19;20018;-82
2023/05/19 06:22:43;;;;;;;5.13;2.15;;;;;;;10.73;87.25;100425.88;12244710;19;20138;-82
2023/05/19 06:26:46;;;;;;;9.52;2.55;;;;;;;11.03;85.73;100432.41;12227876;19;20013;-83
2023/05/19 06:30:50;;;;;;;3.60;1.52;;;;;;;11.28;84.50;100423.94;12201178;19;20006;-82
2023/05/19 06:35:16;;;;;;;4.22;1.75;;;;;;;11.56;83.91;100431.47;12219168;19;20012;-82
2023/05/19 06:39:18;;;;;;;7.35;2.22;;;;;;;11.70;83.42;100435.66;12222855;19;20011;-85
2023/05/19 06:43:20;;;;;;;4.80;2.10;;;;;;;11.76;81.81;100445.75;12201742;19;20694;-85
2023/05/19 06:47:35;;;;;;;6.22;1.95;;;;;;;11.88;81.88;100443.00;12220460;19;20013;-84
2023/05/19 06:51:39;;;;;;;4.35;1.98;;;;;;;12.00;81.19;100438.28;12200939;19;20479;-84
2023/05/19 06:55:41;;;;;;;3.63;1.50;;;;;;;12.20;81.49;100448.91;12221680;19;20068;-81
2023/05/19 07:00:00;;;;;;;5.43;2.45;;;;;;;12.39;79.75;100448.72;12219640;19;20006;-81
2023/05/19 07:04:04;;;;;;;9.02;2.10;;;;;;;12.68;77.34;100452.34;12191885;19;20011;-80
2023/05/19 07:08:07;;;;;;;6.13;1.98;;;;;;;12.97;74.93;100439.31;12217036;19;20050;-80
2023/05/19 07:12:10;;;;;;;4.60;1.50;;;;;;;13.19;73.74;100439.38;12224117;19;20712;-82
2023/05/19 07:16:12;;;;;;;5.28;1.50;;;;;;;13.39;71.31;100427.84;12205911;19;20034;-83
2023/05/19 07:20:15;;;;;;;5.90;1.77;;;;;;;13.73;69.97;100423.06;12222310;19;20806;-82
2023/05/19 07:24:20;;;;;;;12.73;2.42;;;;;;;14.04;67.65;100423.44;12219760;19;20032;-82
2023/05/19 07:28:22;;;;;;;6.10;2.67;;;;;;;14.21;66.86;100421.44;12203257;19;20014;-82
2023/05/19 07:32:24;;;;;;;6.18;1.85;;;;;;;14.45;65.70;100408.13;12226829;19;20007;-83
2023/05/19 07:36:26;;;;;;;4.03;2.10;;;;;;;14.73;65.45;100404.31;12219508;19;19999;-81
2023/05/19 07:40:28;;;;;;;4.40;1.20;;;;;;;15.00;61.75;100406.22;12195049;19;20054;-83
2023/05/19 07:44:36;;;;;;;6.40;2.13;;;;;;;15.21;61.93;100399.72;12222591;19;20034;-82
2023/05/19 07:48:38;;;;;;;6.13;2.15;;;;;;;15.32;59.76;100403.41;12214260;19;20021;-82
2023/05/19 07:52:40;;;;;;;4.00;2.05;;;;;;;15.51;59.50;100398.25;12236545;19;20014;-83
2023/05/19 07:56:42;;;;;;;3.83;1.65;;;;;;;15.64;60.25;100391.38;12231897;19;20104;-80
2023/05/19 08:00:44;;;;;;;5.65;1.85;;;;;;;15.80;60.47;100390.38;12218148;19;20010;-81
2023/05/19 08:04:48;;;;;;;11.82;2.30;;;;;;;15.96;59.56;100382.94;12234921;19;20011;-82
2023/05/19 08:08:52;;;;;;;5.03;1.75;;;;;;;15.92;56.34;100381.84;12235324;19;20034;-81
2023/05/19 08:12:55;;;;;;;4.88;1.58;;;;;;;15.86;57.11;100378.19;12206094;19;20025;-82
2023/05/19 08:16:57;;;;;;;4.32;1.65;;;;;;;16.14;57.88;100384.41;12227666;19;19999;-80
2023/05/19 08:21:11;;;;;;;3.75;2.10;;;;;;;16.32;54.05;100383.91;12234240;19;20014;-80
2023/05/19 08:25:14;;;;;;;5.90;2.00;;;;;;;16.49;55.80;100382.84;12216576;19;20014;-81
2023/05/19 08:29:16;;;;;;;6.03;1.70;;;;;;;16.73;54.76;100391.50;12234373;19;20825;-81
2023/05/19 08:33:20;;;;;;;8.98;2.08;;;;;;;16.91;55.26;100377.06;12231927;19;20006;-80
2023/05/19 08:37:22;;;;;;;6.45;2.15;;;;;;;17.09;52.72;100372.88;12200780;19;20022;-80
2023/05/19 08:41:29;;;;;;;5.68;1.80;;;;;;;17.26;50.21;100373.44;12240703;19;20010;-82
2023/05/19 08:45:33;;;;;;;7.00;1.98;;;;;;;17.32;49.79;100354.75;12248387;19;20015;-81
2023/05/19 08:49:42;;;;;;;9.38;1.90;;;;;;;17.30;49.59;100368.13;12220927;19;20014;-82
2023/05/19 08:53:50;;;;;;;6.90;1.70;;;;;;;17.38;49.70;100358.38;12242633;19;20029;-81
2023/05/19 08:57:52;;;;;;;4.60;1.73;;;;;;;17.32;48.23;100360.31;12221860;19;20006;-80
2023/05/19 09:01:55;;;;;;;5.88;1.83;;;;;;;17.51;47.89;100349.41;12235560;19;20467;-82
2023/05/19 09:05:57;;;;;;;6.72;2.20;;;;;;;17.89;48.40;100347.09;12242980;19;20006;-81
2023/05/19 09:10:00;;;;;;;5.80;2.38;;;;;;;18.60;47.07;100343.88;12211056;19;20014;-84
2023/05/19 09:14:05;;;;;;;6.25;1.90;;;;;;;18.70;46.32;100340.16;12225142;19;20373;-82
2023/05/19 09:18:09;;;;;;;5.88;1.80;;;;;;;18.49;45.83;100333.91;12225361;19;20530;-81
2023/05/19 09:22:14;;;;;;;4.85;1.90;;;;;;;18.79;47.34;100320.88;12211087;19;20018;-82
2023/05/19 09:26:16;;;;;;;6.47;2.20;;;;;;;19.12;45.90;100339.53;12237320;19;20058;-82
2023/05/19 09:30:27;;;;;;;6.03;1.67;;;;;;;19.02;44.03;100324.84;12242439;19;20014;-83
2023/05/19 09:34:31;;;;;;;4.20;2.28;;;;;;;18.99;44.36;100309.50;12208939;19;20059;-84
2023/05/19 09:38:37;;;;;;;6.27;2.03;;;;;;;19.11;43.48;100317.50;12233146;19;20029;-82
2023/05/19 09:42:43;;;;;;;5.57;1.45;;;;;;;19.17;44.98;100310.72;12211739;19;20014;-81
2023/05/19 09:46:49;;;;;;;8.55;1.80;;;;;;;19.33;42.81;100306.66;12232439;19;20006;-83
2023/05/19 09:50:52;;;;;;;4.20;1.73;;;;;;;19.66;44.17;100312.47;12240978;19;20010;-83
2023/05/19 09:54:55;;;;;;;5.15;2.05;;;;;;;19.96;41.79;100313.22;12218872;19;20046;-81
2023/05/19 09:58:57;;;;;;;;;;;;;;;19.98;42.89;100308.94;12241832;19;20014;-83
2023/05/19 10:03:02;;;;;;;5.15;2.05;;;;;;;20.35;41.68;100314.91;12236429;19;19947;-84
2023/05/19 10:07:05;;;;;;;4.28;1.70;;;;;;;20.47;40.77;100301.25;12209371;19;20022;-78
2023/05/19 10:11:08;;;;;;;6.38;2.10;;;;;;;20.48;40.88;100300.94;12238819;19;20003;-82
2023/05/19 10:15:12;;;;;;;6.35;1.90;;;;;;;20.62;40.69;100301.03;12246803;19;20022;-82
2023/05/19 10:19:15;;;;;;;4.80;1.65;;;;;;;20.24;41.33;100292.63;12223225;19;20006;-80
2023/05/19 10:23:17;;;;;;;5.95;1.73;;;;;;;19.57;40.82;100292.69;12224361;19;20015;-82
2023/05/19 10:27:19;;;;;;;4.53;1.67;;;;;;;19.00;42.22;100277.66;12230438;19;20023;-82
2023/05/19 10:31:23;;;;;;;8.00;2.10;;;;;;;19.15;42.34;100279.47;12204532;19;20014;-84
2023/05/19 10:35:55;;;;;;;3.85;1.98;;;;;;;19.46;43.02;100271.59;12228553;19;20169;-82
2023/05/19 10:39:57;;;;;;;6.78;1.67;;;;;;;19.65;43.72;100276.41;12205389;19;20011;-82
2023/05/19 10:44:05;;;;;;;5.37;1.80;;;;;;;20.03;41.60;100277.28;12229945;19;20007;-81
2023/05/19 10:48:15;;;;;;;8.32;1.80;;;;;;;20.30;40.86;100276.59;12229963;19;21075;-82
2023/05/19 10:52:24;;;;;;;5.45;1.67;;;;;;;20.59;40.02;100275.63;12217890;19;20050;-83
2023/05/19 10:56:31;;;;;;;4.80;1.63;;;;;;;21.20;39.78;100260.50;12231735;19;20006;-83
2023/05/19 11:00:40;;;;;;;5.80;1.90;;;;;;;21.53;39.72;100266.06;12218795;19;20471;-83
2023/05/19 11:04:49;;;;;;;4.20;1.80;;;;;;;21.78;39.08;100265.53;12231563;19;20044;-81
2023/05/19 11:09:01;;;;;;;5.55;1.90;;;;;;;21.76;37.64;100248.16;12236330;19;20037;-81
2023/05/19 11:13:04;;;;;;;3.65;1.52;;;;;;;21.48;39.67;100255.78;12194444;19;20006;-81
2023/05/19 11:17:13;;;;;;;6.68;2.00;;;;;;;21.34;38.83;100250.13;12222243;19;20010;-81
2023/05/19 11:21:18;;;;;;;5.30;1.50;;;;;;;21.43;38.39;100253.06;12230043;19;20006;-82
2023/05/19 11:25:45;;;;;;;6.88;1.90;;;;;;;21.89;37.97;100251.25;12202049;19;20487;-82
2023/05/19 11:29:48;;;;;;;3.15;1.65;;;;;;;22.18;38.07;100245.28;12229981;19;20632;-83
2023/05/19 11:33:50;;;;;;;;;;;;;;;22.33;37.18;100250.53;12198043;19;20003;-81
2023/05/19 11:37:53;;;;;;;7.35;2.28;;;;;;;22.12;38.22;100241.75;12219587;19;19918;-83
2023/05/19 11:41:55;;;;;;;9.30;3.10;;;;;;;22.25;37.51;100232.50;12224537;19;20027;-80
2023/05/19 11:45:57;;;;;;;5.93;2.27;;;;;;;21.95;36.69;100225.59;12196882;19;20031;-80
2023/05/19 11:49:59;;;;;;;3.20;1.63;;;;;;;22.31;37.89;100227.59;12220393;19;20244;-81
2023/05/19 11:54:02;;;;;;;4.10;1.50;;;;;;;23.19;35.73;100224.97;12218418;19;20011;-81
2023/05/19 11:58:04;;;;;;;6.53;2.05;;;;;;;23.66;34.53;100216.03;12204243;19;20014;-82
2023/05/19 12:02:26;;;;;;;7.10;1.60;;;;;;;24.06;34.36;100213.97;12225507;19;20537;-81
2023/05/19 12:06:28;;;;;;;5.85;1.88;;;;;;;24.64;34.47;100220.25;12231540;19;20011;-83
2023/05/19 12:10:32;;;;;;;14.95;2.53;;;;;;;25.13;33.56;100229.25;12201959;19;20035;-82
2023/05/19 12:14:34;;;;;;;6.68;2.15;;;;;;;25.64;32.31;100218.88;12216240;19;20038;-82
2023/05/19 12:18:37;;;;;;;4.32;1.75;;;;;;;25.97;31.16;100221.03;12214026;19;20011;-83
2023/05/19 12:22:39;;;;;;;11.10;2.50;;;;;;;26.16;31.42;100219.72;12198141;19;20031;-82
2023/05/19 12:26:45;;;;;;;4.15;1.52;;;;;;;26.57;31.27;100214.03;12235619;19;20018;-83
2023/05/19 12:30:51;;;;;;;4.32;1.50;;;;;;;26.69;30.11;100209.59;12220814;19;20014;-82
2023/05/19 12:34:55;;;;;;;3.58;1.48;;;;;;;26.36;30.11;100214.03;12231701;19;20015;-84
2023/05/19 12:38:57;;;;;;;7.20;2.00;;;;;;;26.20;30.93;100206.53;12224452;19;20022;-82
2023/05/19 12:42:58;;;;;;;5.63;1.50;;;;;;;26.35;31.15;100203.94;12214859;19;20022;-80
2023/05/19 12:47:04;;;;;;;6.13;1.75;;;;;;;26.18;31.22;100203.25;12234695;19;20442;-82
2023/05/19 12:51:06;;;;;;;2.53;1.35;;;;;;;26.17;31.68;100191.09;12236242;19;20009;-83
2023/05/19 12:55:10;;;;;;;4.47;1.45;;;;;;;25.12;31.98;100196.53;12207393;19;20031;-83
2023/05/19 12:59:22;;;;;;;4.78;1.60;;;;;;;25.86;32.49;100188.72;12220298;19;20836;-81
2023/05/19 13:03:42;;;;;;;7.78;2.20;;;;;;;26.32;31.95;100193.28;12199601;19;20027;-80
2023/05/19 13:07:53;;;;;;;3.72;1.45;;;;;;;26.56;31.59;100188.94;12218794;19;20075;-80
2023/05/19 13:11:58;;;;;;;2.97;1.30;;;;;;;26.86;30.32;100180.28;12221926;19;20002;-80
2023/05/19 13:15:59;;;;;;;6.10;1.60;;;;;;;27.28;30.00;100183.81;12189605;19;20081;-79
2023/05/19 13:20:03;;;;;;;5.00;1.40;;;;;;;26.84;30.59;100177.84;12214788;19;20006;-79
2023/05/19 13:24:06;;;;;;;4.15;1.30;;;;;;;26.60;31.01;100172.94;12219709;19;20002;-79
2023/05/19 13:28:09;;;;;;;5.05;1.88;;;;;;;26.51;31.37;100175.03;12200247;19;20015;-78
2023/05/19 13:32:10;;;;;;;5.03;1.25;;;;;;;27.08;31.18;100171.38;12220491;19;19998;-80
2023/05/19 13:36:12;;;;;;;2.38;1.40;;;;;;;26.66;31.01;100162.25;12222345;19;20094;-79
2023/05/19 13:40:15;;;;;;;3.22;1.30;;;;;;;25.96;32.03;100164.88;12195489;19;20176;-80
2023/05/19 13:44:17;;;;;;;2.10;1.25;;;;;;;25.56;32.34;100176.63;12215674;19;20010;-77
2023/05/19 13:48:19;;;;;;;5.18;1.70;;;;;;;25.23;32.65;100177.28;12215354;19;20074;-77
2023/05/19 13:52:21;;;;;;;2.80;1.35;;;;;;;24.88;32.85;100163.31;12195257;19;20006;-78
2023/05/19 13:56:23;;;;;;;2.53;1.33;;;;;;;24.93;32.96;100174.41;12208110;19;20112;-78
2023/05/19 14:00:25;;;;;;;3.60;1.52;;;;;;;24.37;34.18;100173.53;12215418;19;20042;-79
2023/05/19 14:04:27;;;;;;;3.75;1.48;;;;;;;24.48;33.40;100160.78;12189742;19;20559;-83
2023/05/19 14:08:29;;;;;;;6.25;1.70;;;;;;;24.96;32.74;100156.81;12214096;19;20452;-79
2023/05/19 14:12:32;;;;;;;5.65;1.73;;;;;;;24.62;33.80;100157.75;12213394;19;20028;-80
2023/05/19 14:16:52;;;;;;;2.92;1.50;;;;;;;24.58;33.69;100164.41;12190410;19;20015;-79
2023/05/19 14:20:55;;;;;;;2.15;1.20;;;;;;;24.44;34.22;100162.59;12221871;19;20014;-79
2023/05/19 14:24:57;;;;;;;3.05;1.55;;;;;;;24.04;34.72;100159.97;12199763;19;20147;-78
2023/05/19 14:28:58;;;;;;;3.90;1.60;;;;;;;23.49;35.19;100149.31;12216469;19;20010;-80
2023/05/19 14:33:00;;;;;;;2.85;1.33;;;;;;;24.88;33.20;100134.31;12211461;19;20031;-80
2023/05/19 14:37:02;;;;;;;;;;;;;;;26.16;31.79;100137.81;12199267;19;20037;-80
2023/05/19 14:41:05;;;;;;;4.57;1.60;;;;;;;25.94;32.37;100151.13;12233380;19;19918;-80
2023/05/19 14:45:08;;;;;;;3.47;1.42;;;;;;;25.24;33.01;100133.81;12235687;19;20015;-79
2023/05/19 14:49:10;;;;;;;3.20;1.80;;;;;;;24.86;32.84;100131.00;12206652;19;20007;-79
2023/05/19 14:53:12;;;;;;;;;;;;;;;24.35;33.77;100133.59;12216460;19;20090;-78
2023/05/19 14:57:14;;;;;;;3.50;1.60;;;;;;;24.29;33.86;100137.75;12215664;19;20314;-79
2023/05/19 15:01:16;;;;;;;2.65;1.77;;;;;;;24.23;33.80;100128.66;12197010;19;20050;-78
2023/05/19 15:05:18;;;;;;;4.68;1.60;;;;;;;24.11;34.75;100129.34;12210064;19;20466;-78
2023/05/19 15:09:20;;;;;;;4.97;1.73;;;;;;;23.62;35.32;100139.09;12204756;19;20014;-79
2023/05/19 15:13:21;;;;;;;4.22;1.52;;;;;;;23.16;34.93;100137.66;12182518;19;20010;-78
2023/05/19 15:17:23;;;;;;;3.63;1.27;;;;;;;22.86;35.13;100128.94;12206459;19;20023;-78
2023/05/19 15:21:25;;;;;;;3.78;1.73;;;;;;;22.88;35.34;100125.81;12211132;19;20016;-78
2023/05/19 15:25:27;;;;;;;3.85;1.83;;;;;;;22.90;35.53;100120.66;12188611;19;20002;-78
2023/05/19 15:29:28;;;;;;;3.23;1.30;;;;;;;22.66;35.21;100123.88;12213573;19;20078;-79
2023/05/19 15:33:30;;;;;;;3.33;1.50;;;;;;;22.48;35.04;100114.53;12210921;19;20114;-78
2023/05/19 15:37:32;;;;;;;4.60;1.40;;;;;;;22.16;36.32;100121.25;12194317;19;20015;-79
2023/05/19 15:41:34;;;;;;;2.70;1.53;;;;;;;22.20;36.65;100122.31;12215914;19;20129;-80
2023/05/19 15:45:36;;;;;;;4.80;1.90;;;;;;;22.20;36.62;100125.13;12213424;19;20816;-79
2023/05/19 15:49:38;;;;;;;5.27;2.40;;;;;;;22.32;36.28;100119.75;12192146;19;20070;-80
2023/05/19 15:53:40;;;;;;;;;;;;;;;22.38;36.35;100123.25;12212641;19;20323;-81
2023/05/19 15:57:42;;;;;;;3.60;2.00;;;;;;;22.43;36.58;100129.56;12187849;19;19914;-81
2023/05/19 16:01:44;;;;;;;6.87;1.60;;;;;;;22.15;36.87;100120.41;12213122;19;20467;-80
2023/05/19 16:05:46;;;;;;;3.42;1.70;;;;;;;21.99;36.47;100108.75;12221165;19;20018;-79
2023/05/19 16:09:48;;;;;;;4.40;1.70;;;;;;;22.09;35.99;100104.84;12205278;19;20082;-80
2023/05/19 16:13:50;;;;;;;3.65;1.80;;;;;;;22.23;36.14;100113.25;12226697;19;20255;-80
2023/05/19 16:17:53;;;;;;;3.37;1.77;;;;;;;22.03;36.08;100108.94;12217477;19;20030;-79
2023/05/19 16:21:55;;;;;;;4.15;1.90;;;;;;;22.01;36.58;100094.41;12202227;19;20014;-81
2023/05/19 16:25:57;;;;;;;3.17;1.55;;;;;;;21.78;37.62;100097.22;12222082;19;20044;-79
2023/05/19 16:29:59;;;;;;;4.27;1.63;;;;;;;21.59;37.44;100096.53;12226394;19;20006;-80
2023/05/19 16:34:02;;;;;;;4.20;1.60;;;;;;;21.31;37.88;100102.22;12201949;19;20031;-80
2023/05/19 16:38:06;;;;;;;4.00;2.25;;;;;;;21.13;38.14;100086.38;12224169;19;20102;-81
2023/05/19 16:42:08;;;;;;;5.13;1.57;;;;;;;20.87;37.73;100081.28;12224488;19;20006;-80
2023/05/19 16:46:10;;;;;;;7.13;2.00;;;;;;;20.70;38.46;100083.88;12199116;19;20010;-79
2023/05/19 16:50:12;;;;;;;3.05;1.60;;;;;;;20.48;38.71;100088.19;12219615;19;20079;-79
2023/05/19 16:54:14;;;;;;;3.30;1.70;;;;;;;20.27;39.71;100086.94;12224795;19;20016;-80
2023/05/19 16:58:16;;;;;;;7.45;2.05;;;;;;;20.14;41.07;100082.97;12200808;19;20114;-82
2023/05/19 17:02:17;;;;;;;4.33;1.93;;;;;;;20.07;41.15;100088.13;12226021;19;20030;-80
2023/05/19 17:06:20;;;;;;;3.72;1.60;;;;;;;20.03;41.51;100076.72;12219897;19;20094;-79
2023/05/19 17:10:22;;;;;;;4.10;2.10;;;;;;;20.01;41.08;100072.56;12202801;19;20026;-79
2023/05/19 17:14:24;;;;;;;3.05;1.70;;;;;;;19.90;42.31;100077.53;12220289;19;20010;-78
2023/05/19 17:18:26;;;;;;;3.40;1.80;;;;;;;19.74;42.30;100081.69;12218323;19;20068;-82
2023/05/19 17:22:27;;;;;;;7.72;3.92;;;;;;;19.59;42.05;100072.38;12199918;19;20007;-82
2023/05/19 17:26:31;;;;;;;6.45;3.22;;;;;;;19.53;42.66;100079.19;12222084;19;20003;-81
2023/05/19 17:30:33;;;;;;;5.00;2.55;;;;;;;19.50;43.38;100085.38;12227463;19;20006;-81
2023/05/19 17:34:35;;;;;;;5.55;2.83;;;;;;;19.41;42.76;100087.19;12204601;19;20003;-81
2023/05/19 17:38:39;;;;;;;4.60;1.90;;;;;;;19.30;43.25;100085.66;12226251;19;20380;-81
2023/05/19 17:42:40;;;;;;;5.07;2.28;;;;;;;19.27;43.87;100083.47;12201890;19;20142;-83
2023/05/19 17:46:42;;;;;;;4.90;1.83;;;;;;;19.24;43.57;100086.88;12219989;19;20019;-82
2023/05/19 17:50:48;;;;;;;5.67;1.97;;;;;;;19.09;44.39;100097.13;12220068;19;20006;-80
2023/05/19 17:54:50;;;;;;;5.20;2.70;;;;;;;18.98;44.54;100087.25;12200352;19;20007;-80
2023/05/19 17:58:52;;;;;;;5.38;2.47;;;;;;;18.91;45.08;100095.13;12220780;19;20528;-81
2023/05/19 18:02:55;;;;;;;5.63;2.60;;;;;;;18.75;44.60;100091.72;12222050;19;20013;-81
2023/05/19 18:06:59;;;;;;;4.05;2.10;;;;;;;18.62;44.50;100096.03;12196348;19;20228;-81
2023/05/19 18:11:03;;;;;;;2.78;1.90;;;;;;;18.51;44.59;100099.22;12223305;19;20476;-81
2023/05/19 18:15:05;;;;;;;4.88;2.08;;;;;;;18.46;44.50;100094.50;12225250;19;20018;-81
2023/05/19 18:19:07;;;;;;;4.18;2.15;;;;;;;18.40;44.49;100096.53;12208496;19;20093;-81
2023/05/19 18:23:09;;;;;;;2.80;1.63;;;;;;;18.34;45.61;100094.91;12223967;19;20014;-81
2023/05/19 18:27:11;;;;;;;3.28;1.52;;;;;;;18.20;45.47;100103.16;12221093;19;20066;-80
2023/05/19 18:31:18;;;;;;;4.78;1.83;;;;;;;18.14;45.05;100103.47;12197891;19;20006;-81
2023/05/19 18:35:20;;;;;;;6.13;1.52;;;;;;;18.11;46.08;100095.69;12212488;19;20517;-80
2023/05/19 18:39:22;;;;;;;3.38;1.83;;;;;;;18.07;45.65;100103.00;12218067;19;20006;-80
2023/05/19 18:43:25;;;;;;;5.40;1.90;;;;;;;17.94;45.49;100096.97;12199029;19;20018;-80
2023/05/19 18:47:27;;;;;;;5.30;2.60;;;;;;;17.87;45.70;100098.41;12219910;19;20062;-81
2023/05/19 18:51:32;;;;;;;4.32;1.95;;;;;;;17.75;46.87;100102.38;12221369;19;20023;-80